createdAt,value
2023-10-19T00:12:25.109Z,0.00
2023-10-19T00:27:25.858Z,0.00
2023-10-19T00:42:26.712Z,4.00
2023-10-19T00:57:26.937Z,0.00
2023-10-19T01:12:27.715Z,8.00
2023-10-19T01:27:28.476Z,4.00
2023-10-19T01:42:29.209Z,8.00
2023-10-19T01:57:30.064Z,0.00
2023-10-19T02:12:30.338Z,4.00
2023-10-19T02:27:33.377Z,8.00
2023-10-19T02:42:32.243Z,16.00
2023-10-19T02:57:32.941Z,12.00
2023-10-19T03:12:33.604Z,20.00
2023-10-19T03:27:34.472Z,24.00
2023-10-19T03:42:35.077Z,48.00
2023-10-19T03:57:35.682Z,52.00
2023-10-19T04:12:36.339Z,44.00
2023-10-19T04:27:36.953Z,52.00
2023-10-19T04:42:37.548Z,48.00
2023-10-19T04:57:38.268Z,60.00
2023-10-19T05:12:38.854Z,68.00
2023-10-19T05:27:39.376Z,60.00
2023-10-19T05:42:39.840Z,116.00
2023-10-19T05:57:40.288Z,96.00
2023-10-19T06:12:40.616Z,128.00
2023-10-19T06:27:41.216Z,88.00
2023-10-19T06:42:41.606Z,120.00
2023-10-19T06:57:42.158Z,72.00
2023-10-19T07:12:42.722Z,68.00
2023-10-19T07:27:43.230Z,100.00
2023-10-19T07:42:43.733Z,92.00
2023-10-19T07:57:44.068Z,92.00
2023-10-19T08:12:45.364Z,116.00
2023-10-19T08:27:45.221Z,104.00
2023-10-19T08:42:45.631Z,124.00
2023-10-19T08:57:46.031Z,88.00
2023-10-19T09:12:46.530Z,100.00
2023-10-19T09:27:46.899Z,124.00
2023-10-19T09:42:47.204Z,176.00
2023-10-19T09:57:47.599Z,112.00
2023-10-19T10:12:48.134Z,116.00
2023-10-19T10:27:48.685Z,164.00
2023-10-19T10:42:49.188Z,84.00
2023-10-19T10:57:50.714Z,128.00
2023-10-19T11:12:50.233Z,108.00
2023-10-19T11:27:51.050Z,184.00
2023-10-19T11:42:51.402Z,128.00
2023-10-19T11:57:51.753Z,144.00
2023-10-19T12:13:01.573Z,160.00
2023-10-19T12:27:53.601Z,160.00
2023-10-19T12:42:52.956Z,112.00
2023-10-19T12:57:54.014Z,200.00
2023-10-19T13:12:54.459Z,164.00
2023-10-19T13:27:55.265Z,160.00
2023-10-19T13:42:56.307Z,188.00
2023-10-19T13:57:56.930Z,244.00
2023-10-19T14:12:57.669Z,232.00
2023-10-19T14:27:58.568Z,212.00
2023-10-19T14:42:59.343Z,192.00
2023-10-19T14:58:00.112Z,212.00
2023-10-19T15:13:01.043Z,216.00
2023-10-19T15:28:01.377Z,164.00
2023-10-19T15:43:02.212Z,264.00
2023-10-19T15:58:02.420Z,216.00
2023-10-19T16:13:02.826Z,144.00
2023-10-19T16:28:03.120Z,240.00
2023-10-19T16:43:03.568Z,120.00
2023-10-19T16:58:04.623Z,196.00
2023-10-19T17:13:05.272Z,100.00
2023-10-19T17:28:05.676Z,148.00
2023-10-19T17:43:06.212Z,96.00
2023-10-19T17:58:06.894Z,20.00
2023-10-19T18:13:07.524Z,72.00
2023-10-19T18:28:08.195Z,92.00
2023-10-19T18:43:08.785Z,80.00
2023-10-19T18:58:09.425Z,60.00
2023-10-19T19:13:09.891Z,44.00
2023-10-19T19:28:10.576Z,36.00
2023-10-19T19:43:11.370Z,24.00
2023-10-19T19:58:12.155Z,28.00
2023-10-19T20:13:12.823Z,28.00
2023-10-19T20:28:13.479Z,40.00
2023-10-19T20:43:14.127Z,60.00
2023-10-19T20:58:15.320Z,28.00
2023-10-19T21:13:15.578Z,28.00
2023-10-19T21:28:16.293Z,20.00
2023-10-19T21:43:17.026Z,4.00
2023-10-19T21:58:17.769Z,4.00
2023-10-19T22:13:18.500Z,4.00
2023-10-19T22:28:19.240Z,12.00
2023-10-19T22:43:20.080Z,8.00
2023-10-19T22:58:20.310Z,0.00
2023-10-19T23:13:21.059Z,4.00
2023-10-19T23:28:21.801Z,8.00
2023-10-19T23:43:22.536Z,8.00
2023-10-19T23:58:23.367Z,8.00
